sensor_id;sensor_type;location;lat;lon;timestamp;P1;durP1;ratioP1;P2;durP2;ratioP2
2099;SDS011;1055;48.854;9.302;2022-10-16T00:01:57;9.70;;;2.47;;
2099;SDS011;1055;48.854;9.302;2022-10-16T00:04:22;6.50;;;3.00;;
2099;SDS011;1055;48.854;9.302;2022-10-16T00:06:48;6.23;;;2.87;;
2099;SDS011;1055;48.854;9.302;2022-10-16T00:09:13;6.57;;;2.83;;
2099;SDS011;1055;48.854;9.302;2022-10-16T00:11:39;7.87;;;3.00;;
2099;SDS011;1055;48.854;9.302;2022-10-16T00:14:07;9.50;;;2.90;;
2099;SDS011;1055;48.854;9.302;2022-10-16T00:16:38;7.70;;;2.70;;
2099;SDS011;1055;48.854;9.302;2022-10-16T00:19:03;6.77;;;3.07;;
2099;SDS011;1055;48.854;9.302;2022-10-16T00:21:30;6.40;;;2.40;;
2099;SDS011;1055;48.854;9.302;2022-10-16T00:24:00;5.90;;;2.90;;
2099;SDS011;1055;48.854;9.302;2022-10-16T00:26:32;7.50;;;2.77;;
2099;SDS011;1055;48.854;9.302;2022-10-16T00:28:58;7.57;;;2.80;;
2099;SDS011;1055;48.854;9.302;2022-10-16T00:31:24;6.20;;;2.70;;
2099;SDS011;1055;48.854;9.302;2022-10-16T00:33:50;9.43;;;2.73;;
2099;SDS011;1055;48.854;9.302;2022-10-16T00:36:17;7.47;;;2.87;;
2099;SDS011;1055;48.854;9.302;2022-10-16T00:38:45;7.30;;;2.90;;
2099;SDS011;1055;48.854;9.302;2022-10-16T00:41:12;6.80;;;2.43;;
2099;SDS011;1055;48.854;9.302;2022-10-16T00:43:41;7.53;;;2.73;;
2099;SDS011;1055;48.854;9.302;2022-10-16T00:46:26;7.03;;;2.73;;
2099;SDS011;1055;48.854;9.302;2022-10-16T00:48:57;7.63;;;2.50;;
2099;SDS011;1055;48.854;9.302;2022-10-16T00:51:34;5.80;;;2.20;;
2099;SDS011;1055;48.854;9.302;2022-10-16T00:54:06;6.23;;;2.37;;
2099;SDS011;1055;48.854;9.302;2022-10-16T00:56:38;7.50;;;2.30;;
2099;SDS011;1055;48.854;9.302;2022-10-16T00:59:05;5.80;;;2.50;;
2099;SDS011;1055;48.854;9.302;2022-10-16T01:01:36;7.40;;;2.57;;
2099;SDS011;1055;48.854;9.302;2022-10-16T01:04:02;6.57;;;2.57;;
2099;SDS011;1055;48.854;9.302;2022-10-16T01:14:34;5.67;;;2.60;;
2099;SDS011;1055;48.854;9.302;2022-10-16T01:17:25;6.60;;;2.10;;
2099;SDS011;1055;48.854;9.302;2022-10-16T01:22:37;6.07;;;2.60;;
2099;SDS011;1055;48.854;9.302;2022-10-16T01:25:09;7.00;;;2.23;;
2099;SDS011;1055;48.854;9.302;2022-10-16T01:27:41;11.13;;;3.27;;
2099;SDS011;1055;48.854;9.302;2022-10-16T01:32:59;8.23;;;2.40;;
2099;SDS011;1055;48.854;9.302;2022-10-16T01:35:38;6.90;;;2.50;;
2099;SDS011;1055;48.854;9.302;2022-10-16T01:38:19;7.00;;;2.67;;
2099;SDS011;1055;48.854;9.302;2022-10-16T01:40:52;8.17;;;2.80;;
2099;SDS011;1055;48.854;9.302;2022-10-16T01:43:40;5.57;;;2.37;;
2099;SDS011;1055;48.854;9.302;2022-10-16T01:46:09;6.23;;;2.40;;
2099;SDS011;1055;48.854;9.302;2022-10-16T01:48:37;5.57;;;2.50;;
2099;SDS011;1055;48.854;9.302;2022-10-16T01:51:05;8.33;;;3.20;;
2099;SDS011;1055;48.854;9.302;2022-10-16T01:53:35;6.40;;;2.67;;
2099;SDS011;1055;48.854;9.302;2022-10-16T01:56:02;8.37;;;2.70;;
2099;SDS011;1055;48.854;9.302;2022-10-16T01:58:33;6.37;;;2.80;;
2099;SDS011;1055;48.854;9.302;2022-10-16T02:01:01;6.90;;;2.57;;
2099;SDS011;1055;48.854;9.302;2022-10-16T02:03:29;6.30;;;2.70;;
2099;SDS011;1055;48.854;9.302;2022-10-16T02:05:55;9.50;;;3.40;;
2099;SDS011;1055;48.854;9.302;2022-10-16T02:08:23;8.23;;;2.90;;
2099;SDS011;1055;48.854;9.302;2022-10-16T02:10:53;7.20;;;2.73;;
2099;SDS011;1055;48.854;9.302;2022-10-16T02:13:28;7.70;;;2.50;;
2099;SDS011;1055;48.854;9.302;2022-10-16T02:16:10;8.50;;;3.20;;
2099;SDS011;1055;48.854;9.302;2022-10-16T02:18:37;7.43;;;2.80;;
2099;SDS011;1055;48.854;9.302;2022-10-16T02:24:03;11.03;;;3.00;;
2099;SDS011;1055;48.854;9.302;2022-10-16T02:27:10;9.00;;;3.20;;
2099;SDS011;1055;48.854;9.302;2022-10-16T02:29:35;7.10;;;2.80;;
2099;SDS011;1055;48.854;9.302;2022-10-16T02:32:10;5.87;;;2.37;;
2099;SDS011;1055;48.854;9.302;2022-10-16T02:34:37;7.03;;;2.87;;
2099;SDS011;1055;48.854;9.302;2022-10-16T02:37:05;7.37;;;3.37;;
2099;SDS011;1055;48.854;9.302;2022-10-16T02:39:32;6.43;;;2.70;;
2099;SDS011;1055;48.854;9.302;2022-10-16T02:41:58;7.37;;;2.40;;
2099;SDS011;1055;48.854;9.302;2022-10-16T02:44:24;9.30;;;2.73;;
2099;SDS011;1055;48.854;9.302;2022-10-16T02:46:49;8.10;;;2.93;;
2099;SDS011;1055;48.854;9.302;2022-10-16T02:49:15;7.10;;;2.53;;
2099;SDS011;1055;48.854;9.302;2022-10-16T02:51:41;8.10;;;2.40;;
2099;SDS011;1055;48.854;9.302;2022-10-16T02:54:06;13.13;;;3.27;;
2099;SDS011;1055;48.854;9.302;2022-10-16T02:56:32;8.10;;;3.03;;
2099;SDS011;1055;48.854;9.302;2022-10-16T02:58:58;7.40;;;3.20;;
2099;SDS011;1055;48.854;9.302;2022-10-16T03:01:23;5.87;;;2.50;;
2099;SDS011;1055;48.854;9.302;2022-10-16T03:03:49;8.23;;;2.87;;
2099;SDS011;1055;48.854;9.302;2022-10-16T03:06:15;8.40;;;2.70;;
2099;SDS011;1055;48.854;9.302;2022-10-16T03:08:41;8.30;;;2.70;;
2099;SDS011;1055;48.854;9.302;2022-10-16T03:11:09;8.40;;;2.70;;
2099;SDS011;1055;48.854;9.302;2022-10-16T03:13:34;5.47;;;2.20;;
2099;SDS011;1055;48.854;9.302;2022-10-16T03:16:00;7.53;;;2.93;;
2099;SDS011;1055;48.854;9.302;2022-10-16T03:18:25;6.70;;;2.83;;
2099;SDS011;1055;48.854;9.302;2022-10-16T03:20:51;6.87;;;2.37;;
2099;SDS011;1055;48.854;9.302;2022-10-16T03:23:16;9.13;;;2.60;;
2099;SDS011;1055;48.854;9.302;2022-10-16T03:25:42;7.03;;;2.73;;
2099;SDS011;1055;48.854;9.302;2022-10-16T03:28:08;7.60;;;2.97;;
2099;SDS011;1055;48.854;9.302;2022-10-16T03:30:34;5.50;;;2.50;;
2099;SDS011;1055;48.854;9.302;2022-10-16T03:32:59;6.50;;;2.57;;
2099;SDS011;1055;48.854;9.302;2022-10-16T03:35:25;9.20;;;2.87;;
2099;SDS011;1055;48.854;9.302;2022-10-16T03:37:51;6.30;;;2.50;;
2099;SDS011;1055;48.854;9.302;2022-10-16T03:40:17;7.23;;;2.47;;
2099;SDS011;1055;48.854;9.302;2022-10-16T03:42:43;7.80;;;2.80;;
2099;SDS011;1055;48.854;9.302;2022-10-16T03:45:09;7.50;;;2.83;;
2099;SDS011;1055;48.854;9.302;2022-10-16T03:47:35;8.37;;;3.07;;
2099;SDS011;1055;48.854;9.302;2022-10-16T03:50:00;7.30;;;2.90;;
2099;SDS011;1055;48.854;9.302;2022-10-16T03:52:26;6.03;;;2.70;;
2099;SDS011;1055;48.854;9.302;2022-10-16T03:54:52;5.90;;;2.70;;
2099;SDS011;1055;48.854;9.302;2022-10-16T03:57:17;6.17;;;2.63;;
2099;SDS011;1055;48.854;9.302;2022-10-16T03:59:43;8.43;;;2.80;;
2099;SDS011;1055;48.854;9.302;2022-10-16T04:02:09;9.10;;;2.40;;
2099;SDS011;1055;48.854;9.302;2022-10-16T04:04:34;8.63;;;2.73;;
2099;SDS011;1055;48.854;9.302;2022-10-16T04:07:00;5.73;;;2.50;;
2099;SDS011;1055;48.854;9.302;2022-10-16T04:09:26;11.10;;;3.10;;
2099;SDS011;1055;48.854;9.302;2022-10-16T04:11:52;7.83;;;3.00;;
2099;SDS011;1055;48.854;9.302;2022-10-16T04:14:17;11.27;;;3.23;;
2099;SDS011;1055;48.854;9.302;2022-10-16T04:16:43;11.57;;;2.87;;
2099;SDS011;1055;48.854;9.302;2022-10-16T04:19:09;11.13;;;3.73;;
2099;SDS011;1055;48.854;9.302;2022-10-16T04:21:35;7.53;;;2.90;;
2099;SDS011;1055;48.854;9.302;2022-10-16T04:24:01;7.33;;;2.93;;
2099;SDS011;1055;48.854;9.302;2022-10-16T04:26:27;6.57;;;2.67;;
2099;SDS011;1055;48.854;9.302;2022-10-16T04:28:52;8.20;;;3.00;;
2099;SDS011;1055;48.854;9.302;2022-10-16T04:31:18;7.00;;;2.60;;
2099;SDS011;1055;48.854;9.302;2022-10-16T04:33:44;6.50;;;2.80;;
2099;SDS011;1055;48.854;9.302;2022-10-16T04:36:10;7.90;;;2.77;;
2099;SDS011;1055;48.854;9.302;2022-10-16T04:38:35;6.70;;;2.87;;
2099;SDS011;1055;48.854;9.302;2022-10-16T04:41:02;6.83;;;3.27;;
2099;SDS011;1055;48.854;9.302;2022-10-16T04:43:28;9.20;;;3.10;;
2099;SDS011;1055;48.854;9.302;2022-10-16T04:45:54;9.53;;;3.20;;
2099;SDS011;1055;48.854;9.302;2022-10-16T04:48:19;7.83;;;3.13;;
2099;SDS011;1055;48.854;9.302;2022-10-16T04:50:45;7.17;;;3.13;;
2099;SDS011;1055;48.854;9.302;2022-10-16T04:53:11;8.93;;;2.93;;
2099;SDS011;1055;48.854;9.302;2022-10-16T04:55:37;6.10;;;2.67;;
2099;SDS011;1055;48.854;9.302;2022-10-16T04:58:03;9.43;;;2.87;;
2099;SDS011;1055;48.854;9.302;2022-10-16T05:00:29;7.63;;;2.53;;
2099;SDS011;1055;48.854;9.302;2022-10-16T05:02:55;6.30;;;2.80;;
2099;SDS011;1055;48.854;9.302;2022-10-16T05:05:20;15.90;;;3.17;;
2099;SDS011;1055;48.854;9.302;2022-10-16T05:07:46;6.53;;;3.00;;
2099;SDS011;1055;48.854;9.302;2022-10-16T05:10:12;12.70;;;3.17;;
2099;SDS011;1055;48.854;9.302;2022-10-16T05:12:38;5.93;;;2.77;;
2099;SDS011;1055;48.854;9.302;2022-10-16T05:15:04;10.03;;;2.57;;
2099;SDS011;1055;48.854;9.302;2022-10-16T05:17:30;7.10;;;2.90;;
2099;SDS011;1055;48.854;9.302;2022-10-16T05:19:55;11.67;;;3.20;;
2099;SDS011;1055;48.854;9.302;2022-10-16T05:22:21;7.53;;;3.10;;
2099;SDS011;1055;48.854;9.302;2022-10-16T05:24:47;7.17;;;2.63;;
2099;SDS011;1055;48.854;9.302;2022-10-16T05:27:12;6.90;;;3.10;;
2099;SDS011;1055;48.854;9.302;2022-10-16T05:29:44;7.87;;;3.20;;
2099;SDS011;1055;48.854;9.302;2022-10-16T05:32:13;6.40;;;2.77;;
2099;SDS011;1055;48.854;9.302;2022-10-16T05:34:40;7.80;;;3.30;;
2099;SDS011;1055;48.854;9.302;2022-10-16T05:37:06;6.00;;;2.90;;
2099;SDS011;1055;48.854;9.302;2022-10-16T05:39:32;12.50;;;3.10;;
2099;SDS011;1055;48.854;9.302;2022-10-16T05:41:58;6.20;;;3.40;;
2099;SDS011;1055;48.854;9.302;2022-10-16T05:44:23;6.77;;;2.93;;
2099;SDS011;1055;48.854;9.302;2022-10-16T05:46:49;5.97;;;3.07;;
2099;SDS011;1055;48.854;9.302;2022-10-16T05:49:15;6.90;;;3.30;;
2099;SDS011;1055;48.854;9.302;2022-10-16T05:51:40;6.60;;;3.03;;
2099;SDS011;1055;48.854;9.302;2022-10-16T05:54:06;6.30;;;2.70;;
2099;SDS011;1055;48.854;9.302;2022-10-16T05:56:32;8.53;;;3.20;;
2099;SDS011;1055;48.854;9.302;2022-10-16T05:58:58;7.17;;;3.10;;
2099;SDS011;1055;48.854;9.302;2022-10-16T06:01:23;6.40;;;2.80;;
2099;SDS011;1055;48.854;9.302;2022-10-16T06:03:50;7.60;;;3.10;;
2099;SDS011;1055;48.854;9.302;2022-10-16T06:06:18;9.03;;;3.40;;
2099;SDS011;1055;48.854;9.302;2022-10-16T06:08:49;7.30;;;2.97;;
2099;SDS011;1055;48.854;9.302;2022-10-16T06:11:15;9.27;;;3.50;;
2099;SDS011;1055;48.854;9.302;2022-10-16T06:13:43;6.80;;;2.60;;
2099;SDS011;1055;48.854;9.302;2022-10-16T06:16:11;6.30;;;2.83;;
2099;SDS011;1055;48.854;9.302;2022-10-16T06:18:37;8.93;;;3.30;;
2099;SDS011;1055;48.854;9.302;2022-10-16T06:21:22;7.70;;;3.67;;
2099;SDS011;1055;48.854;9.302;2022-10-16T06:23:50;8.60;;;3.40;;
2099;SDS011;1055;48.854;9.302;2022-10-16T06:26:17;10.43;;;3.30;;
2099;SDS011;1055;48.854;9.302;2022-10-16T06:28:44;7.37;;;3.47;;
2099;SDS011;1055;48.854;9.302;2022-10-16T06:31:10;6.17;;;3.00;;
2099;SDS011;1055;48.854;9.302;2022-10-16T06:33:37;6.47;;;2.90;;
2099;SDS011;1055;48.854;9.302;2022-10-16T06:36:04;8.43;;;3.57;;
2099;SDS011;1055;48.854;9.302;2022-10-16T06:38:34;8.13;;;4.40;;
2099;SDS011;1055;48.854;9.302;2022-10-16T06:41:01;11.70;;;3.90;;
2099;SDS011;1055;48.854;9.302;2022-10-16T06:43:28;7.90;;;3.90;;
2099;SDS011;1055;48.854;9.302;2022-10-16T06:45:57;9.07;;;3.43;;
2099;SDS011;1055;48.854;9.302;2022-10-16T06:48:24;8.20;;;3.10;;
2099;SDS011;1055;48.854;9.302;2022-10-16T06:51:01;12.60;;;3.80;;
2099;SDS011;1055;48.854;9.302;2022-10-16T06:53:31;10.70;;;4.63;;
2099;SDS011;1055;48.854;9.302;2022-10-16T06:56:06;8.93;;;3.80;;
2099;SDS011;1055;48.854;9.302;2022-10-16T06:58:36;9.37;;;3.43;;
2099;SDS011;1055;48.854;9.302;2022-10-16T07:01:02;6.73;;;3.43;;
2099;SDS011;1055;48.854;9.302;2022-10-16T07:03:28;6.80;;;3.20;;
2099;SDS011;1055;48.854;9.302;2022-10-16T07:05:53;7.20;;;2.77;;
2099;SDS011;1055;48.854;9.302;2022-10-16T07:08:19;8.97;;;3.60;;
2099;SDS011;1055;48.854;9.302;2022-10-16T07:11:04;7.63;;;3.10;;
2099;SDS011;1055;48.854;9.302;2022-10-16T07:13:34;6.33;;;3.00;;
2099;SDS011;1055;48.854;9.302;2022-10-16T07:16:07;6.47;;;3.10;;
2099;SDS011;1055;48.854;9.302;2022-10-16T07:18:35;6.90;;;2.77;;
2099;SDS011;1055;48.854;9.302;2022-10-16T07:21:08;9.77;;;3.37;;
2099;SDS011;1055;48.854;9.302;2022-10-16T07:23:36;8.77;;;3.67;;
2099;SDS011;1055;48.854;9.302;2022-10-16T07:26:03;7.47;;;3.37;;
2099;SDS011;1055;48.854;9.302;2022-10-16T07:28:31;10.77;;;3.23;;
2099;SDS011;1055;48.854;9.302;2022-10-16T07:31:01;8.00;;;3.20;;
2099;SDS011;1055;48.854;9.302;2022-10-16T07:33:32;5.73;;;2.83;;
2099;SDS011;1055;48.854;9.302;2022-10-16T07:35:59;8.30;;;3.03;;
2099;SDS011;1055;48.854;9.302;2022-10-16T07:38:27;7.10;;;2.90;;
2099;SDS011;1055;48.854;9.302;2022-10-16T07:40:59;7.13;;;3.10;;
2099;SDS011;1055;48.854;9.302;2022-10-16T07:43:26;6.03;;;2.80;;
2099;SDS011;1055;48.854;9.302;2022-10-16T07:45:54;8.20;;;2.90;;
2099;SDS011;1055;48.854;9.302;2022-10-16T07:48:20;6.80;;;3.20;;
2099;SDS011;1055;48.854;9.302;2022-10-16T07:50:47;7.40;;;2.80;;
2099;SDS011;1055;48.854;9.302;2022-10-16T07:53:15;6.60;;;3.00;;
2099;SDS011;1055;48.854;9.302;2022-10-16T07:55:41;8.37;;;3.43;;
2099;SDS011;1055;48.854;9.302;2022-10-16T07:58:08;7.63;;;3.80;;
2099;SDS011;1055;48.854;9.302;2022-10-16T08:00:33;9.67;;;3.60;;
2099;SDS011;1055;48.854;9.302;2022-10-16T08:03:00;11.13;;;3.50;;
2099;SDS011;1055;48.854;9.302;2022-10-16T08:05:29;9.50;;;3.40;;
2099;SDS011;1055;48.854;9.302;2022-10-16T08:07:57;9.30;;;3.10;;
2099;SDS011;1055;48.854;9.302;2022-10-16T08:10:23;6.70;;;3.13;;
2099;SDS011;1055;48.854;9.302;2022-10-16T08:12:50;7.80;;;3.53;;
2099;SDS011;1055;48.854;9.302;2022-10-16T08:15:17;6.23;;;3.27;;
2099;SDS011;1055;48.854;9.302;2022-10-16T08:17:43;9.80;;;3.30;;
2099;SDS011;1055;48.854;9.302;2022-10-16T08:20:09;7.43;;;3.50;;
2099;SDS011;1055;48.854;9.302;2022-10-16T08:22:35;6.73;;;3.27;;
2099;SDS011;1055;48.854;9.302;2022-10-16T08:25:00;10.00;;;3.63;;
2099;SDS011;1055;48.854;9.302;2022-10-16T08:27:35;7.20;;;3.33;;
2099;SDS011;1055;48.854;9.302;2022-10-16T08:30:01;7.00;;;2.90;;
2099;SDS011;1055;48.854;9.302;2022-10-16T08:32:26;7.63;;;3.13;;
2099;SDS011;1055;48.854;9.302;2022-10-16T08:34:53;9.10;;;2.93;;
2099;SDS011;1055;48.854;9.302;2022-10-16T08:37:18;8.57;;;2.93;;
2099;SDS011;1055;48.854;9.302;2022-10-16T08:39:44;7.30;;;2.53;;
2099;SDS011;1055;48.854;9.302;2022-10-16T08:47:44;7.87;;;2.73;;
2099;SDS011;1055;48.854;9.302;2022-10-16T08:50:17;6.80;;;2.60;;
2099;SDS011;1055;48.854;9.302;2022-10-16T08:52:49;9.63;;;2.40;;
2099;SDS011;1055;48.854;9.302;2022-10-16T08:55:29;7.10;;;2.47;;
2099;SDS011;1055;48.854;9.302;2022-10-16T08:57:58;6.90;;;2.40;;
2099;SDS011;1055;48.854;9.302;2022-10-16T09:00:24;5.67;;;2.53;;
2099;SDS011;1055;48.854;9.302;2022-10-16T09:05:31;6.00;;;2.50;;
2099;SDS011;1055;48.854;9.302;2022-10-16T09:18:41;6.80;;;2.90;;
2099;SDS011;1055;48.854;9.302;2022-10-16T09:21:22;8.73;;;2.90;;
2099;SDS011;1055;48.854;9.302;2022-10-16T09:23:57;7.83;;;2.77;;
2099;SDS011;1055;48.854;9.302;2022-10-16T09:26:33;5.87;;;2.10;;
2099;SDS011;1055;48.854;9.302;2022-10-16T09:28:59;8.97;;;2.07;;
2099;SDS011;1055;48.854;9.302;2022-10-16T09:31:24;6.27;;;2.33;;
2099;SDS011;1055;48.854;9.302;2022-10-16T09:33:52;12.77;;;2.70;;
2099;SDS011;1055;48.854;9.302;2022-10-16T09:36:22;7.33;;;2.53;;
2099;SDS011;1055;48.854;9.302;2022-10-16T09:39:00;7.73;;;2.23;;
2099;SDS011;1055;48.854;9.302;2022-10-16T09:41:30;6.20;;;2.47;;
2099;SDS011;1055;48.854;9.302;2022-10-16T09:44:00;6.50;;;2.40;;
2099;SDS011;1055;48.854;9.302;2022-10-16T09:46:30;6.70;;;2.40;;
2099;SDS011;1055;48.854;9.302;2022-10-16T09:48:59;6.00;;;2.43;;
2099;SDS011;1055;48.854;9.302;2022-10-16T09:51:30;6.33;;;2.40;;
2099;SDS011;1055;48.854;9.302;2022-10-16T09:56:31;6.40;;;1.80;;
2099;SDS011;1055;48.854;9.302;2022-10-16T09:59:03;9.70;;;2.50;;
2099;SDS011;1055;48.854;9.302;2022-10-16T10:01:36;5.20;;;2.03;;
2099;SDS011;1055;48.854;9.302;2022-10-16T10:04:05;5.30;;;2.40;;
2099;SDS011;1055;48.854;9.302;2022-10-16T10:06:44;5.70;;;2.30;;
2099;SDS011;1055;48.854;9.302;2022-10-16T10:09:25;9.00;;;2.00;;
2099;SDS011;1055;48.854;9.302;2022-10-16T10:11:56;7.33;;;2.17;;
2099;SDS011;1055;48.854;9.302;2022-10-16T10:22:23;5.33;;;2.20;;
2099;SDS011;1055;48.854;9.302;2022-10-16T10:35:29;5.80;;;1.87;;
2099;SDS011;1055;48.854;9.302;2022-10-16T10:40:57;7.10;;;2.10;;
2099;SDS011;1055;48.854;9.302;2022-10-16T10:43:33;9.53;;;1.97;;
2099;SDS011;1055;48.854;9.302;2022-10-16T10:46:09;8.00;;;2.60;;
2099;SDS011;1055;48.854;9.302;2022-10-16T11:00:57;7.23;;;2.30;;
2099;SDS011;1055;48.854;9.302;2022-10-16T11:03:41;7.47;;;2.20;;
2099;SDS011;1055;48.854;9.302;2022-10-16T11:06:33;5.70;;;1.83;;
2099;SDS011;1055;48.854;9.302;2022-10-16T11:10:08;5.10;;;2.00;;
2099;SDS011;1055;48.854;9.302;2022-10-16T11:14:46;5.77;;;1.87;;
2099;SDS011;1055;48.854;9.302;2022-10-16T11:17:25;5.00;;;2.13;;
2099;SDS011;1055;48.854;9.302;2022-10-16T11:19:54;4.93;;;1.87;;
2099;SDS011;1055;48.854;9.302;2022-10-16T11:22:36;8.10;;;1.90;;
2099;SDS011;1055;48.854;9.302;2022-10-16T11:27:41;5.60;;;1.70;;
2099;SDS011;1055;48.854;9.302;2022-10-16T11:30:21;7.40;;;2.40;;
2099;SDS011;1055;48.854;9.302;2022-10-16T11:32:56;5.03;;;1.90;;
2099;SDS011;1055;48.854;9.302;2022-10-16T11:38:40;6.57;;;2.43;;
2099;SDS011;1055;48.854;9.302;2022-10-16T11:49:50;5.97;;;2.07;;
2099;SDS011;1055;48.854;9.302;2022-10-16T11:55:05;5.20;;;2.00;;
2099;SDS011;1055;48.854;9.302;2022-10-16T11:57:41;5.30;;;2.07;;
2099;SDS011;1055;48.854;9.302;2022-10-16T12:00:56;5.93;;;1.80;;
2099;SDS011;1055;48.854;9.302;2022-10-16T12:08:16;5.60;;;2.00;;
2099;SDS011;1055;48.854;9.302;2022-10-16T12:10:43;5.83;;;2.10;;
2099;SDS011;1055;48.854;9.302;2022-10-16T12:13:28;5.70;;;2.40;;
2099;SDS011;1055;48.854;9.302;2022-10-16T12:18:44;7.23;;;1.97;;
2099;SDS011;1055;48.854;9.302;2022-10-16T12:21:11;5.00;;;1.87;;
2099;SDS011;1055;48.854;9.302;2022-10-16T12:23:47;6.30;;;1.87;;
2099;SDS011;1055;48.854;9.302;2022-10-16T12:26:25;5.77;;;2.23;;
2099;SDS011;1055;48.854;9.302;2022-10-16T12:28:56;5.70;;;2.20;;
2099;SDS011;1055;48.854;9.302;2022-10-16T12:31:36;5.93;;;2.20;;
2099;SDS011;1055;48.854;9.302;2022-10-16T12:34:14;6.20;;;2.30;;
2099;SDS011;1055;48.854;9.302;2022-10-16T12:37:25;7.83;;;2.00;;
2099;SDS011;1055;48.854;9.302;2022-10-16T12:39:54;6.07;;;2.43;;
2099;SDS011;1055;48.854;9.302;2022-10-16T12:42:23;8.33;;;1.93;;
2099;SDS011;1055;48.854;9.302;2022-10-16T12:44:52;5.40;;;2.00;;
2099;SDS011;1055;48.854;9.302;2022-10-16T12:49:56;5.57;;;2.30;;
2099;SDS011;1055;48.854;9.302;2022-10-16T12:52:27;6.80;;;2.30;;
2099;SDS011;1055;48.854;9.302;2022-10-16T12:54:59;14.07;;;3.70;;
2099;SDS011;1055;48.854;9.302;2022-10-16T13:00:04;6.33;;;2.60;;
2099;SDS011;1055;48.854;9.302;2022-10-16T13:02:56;6.83;;;2.03;;
2099;SDS011;1055;48.854;9.302;2022-10-16T13:05:54;5.63;;;2.00;;
2099;SDS011;1055;48.854;9.302;2022-10-16T13:13:54;5.83;;;2.17;;
2099;SDS011;1055;48.854;9.302;2022-10-16T13:22:34;6.87;;;2.23;;
2099;SDS011;1055;48.854;9.302;2022-10-16T13:28:06;6.17;;;2.40;;
2099;SDS011;1055;48.854;9.302;2022-10-16T13:30:37;6.70;;;2.00;;
2099;SDS011;1055;48.854;9.302;2022-10-16T13:33:19;6.83;;;2.20;;
2099;SDS011;1055;48.854;9.302;2022-10-16T13:35:53;8.57;;;2.17;;
2099;SDS011;1055;48.854;9.302;2022-10-16T13:38:21;5.27;;;2.03;;
2099;SDS011;1055;48.854;9.302;2022-10-16T13:43:15;11.83;;;2.90;;
2099;SDS011;1055;48.854;9.302;2022-10-16T13:45:52;6.03;;;2.10;;
2099;SDS011;1055;48.854;9.302;2022-10-16T13:48:18;9.03;;;2.30;;
2099;SDS011;1055;48.854;9.302;2022-10-16T13:50:44;4.90;;;2.10;;
2099;SDS011;1055;48.854;9.302;2022-10-16T13:53:13;8.50;;;2.00;;
2099;SDS011;1055;48.854;9.302;2022-10-16T13:55:39;6.70;;;2.30;;
2099;SDS011;1055;48.854;9.302;2022-10-16T13:58:08;4.80;;;1.93;;
2099;SDS011;1055;48.854;9.302;2022-10-16T14:00:38;5.90;;;2.10;;
2099;SDS011;1055;48.854;9.302;2022-10-16T14:03:05;5.40;;;2.07;;
2099;SDS011;1055;48.854;9.302;2022-10-16T14:05:42;7.30;;;2.40;;
2099;SDS011;1055;48.854;9.302;2022-10-16T14:08:14;6.50;;;2.00;;
2099;SDS011;1055;48.854;9.302;2022-10-16T14:10:39;6.17;;;2.43;;
2099;SDS011;1055;48.854;9.302;2022-10-16T14:13:06;5.37;;;1.93;;
2099;SDS011;1055;48.854;9.302;2022-10-16T14:15:38;4.93;;;2.17;;
2099;SDS011;1055;48.854;9.302;2022-10-16T14:18:03;7.83;;;2.27;;
2099;SDS011;1055;48.854;9.302;2022-10-16T14:20:30;5.80;;;2.30;;
2099;SDS011;1055;48.854;9.302;2022-10-16T14:23:18;5.67;;;2.53;;
2099;SDS011;1055;48.854;9.302;2022-10-16T14:25:48;7.40;;;2.60;;
2099;SDS011;1055;48.854;9.302;2022-10-16T14:28:18;5.67;;;2.47;;
2099;SDS011;1055;48.854;9.302;2022-10-16T14:30:52;4.90;;;2.23;;
2099;SDS011;1055;48.854;9.302;2022-10-16T14:33:21;8.73;;;2.30;;
2099;SDS011;1055;48.854;9.302;2022-10-16T14:38:36;5.90;;;2.10;;
2099;SDS011;1055;48.854;9.302;2022-10-16T14:41:04;6.33;;;2.20;;
2099;SDS011;1055;48.854;9.302;2022-10-16T14:43:32;6.37;;;2.43;;
2099;SDS011;1055;48.854;9.302;2022-10-16T14:46:01;6.33;;;2.20;;
2099;SDS011;1055;48.854;9.302;2022-10-16T14:48:28;5.20;;;2.10;;
2099;SDS011;1055;48.854;9.302;2022-10-16T14:50:54;6.90;;;2.60;;
2099;SDS011;1055;48.854;9.302;2022-10-16T14:53:20;5.50;;;2.70;;
2099;SDS011;1055;48.854;9.302;2022-10-16T14:55:46;5.97;;;2.50;;
2099;SDS011;1055;48.854;9.302;2022-10-16T14:58:14;8.00;;;2.40;;
2099;SDS011;1055;48.854;9.302;2022-10-16T15:00:42;7.50;;;2.27;;
2099;SDS011;1055;48.854;9.302;2022-10-16T15:03:08;6.23;;;2.10;;
2099;SDS011;1055;48.854;9.302;2022-10-16T15:05:33;5.43;;;2.27;;
2099;SDS011;1055;48.854;9.302;2022-10-16T15:07:59;5.87;;;2.37;;
2099;SDS011;1055;48.854;9.302;2022-10-16T15:10:25;5.87;;;2.73;;
2099;SDS011;1055;48.854;9.302;2022-10-16T15:12:53;5.70;;;2.50;;
2099;SDS011;1055;48.854;9.302;2022-10-16T15:17:48;7.00;;;2.53;;
2099;SDS011;1055;48.854;9.302;2022-10-16T15:20:20;4.87;;;2.27;;
2099;SDS011;1055;48.854;9.302;2022-10-16T15:22:46;5.97;;;2.10;;
2099;SDS011;1055;48.854;9.302;2022-10-16T15:27:49;6.70;;;2.40;;
2099;SDS011;1055;48.854;9.302;2022-10-16T15:30:15;6.40;;;2.40;;
2099;SDS011;1055;48.854;9.302;2022-10-16T15:32:41;6.30;;;2.57;;
2099;SDS011;1055;48.854;9.302;2022-10-16T15:35:08;6.27;;;2.30;;
2099;SDS011;1055;48.854;9.302;2022-10-16T15:37:34;6.13;;;2.57;;
2099;SDS011;1055;48.854;9.302;2022-10-16T15:39:59;7.10;;;2.47;;
2099;SDS011;1055;48.854;9.302;2022-10-16T15:42:25;6.30;;;2.80;;
2099;SDS011;1055;48.854;9.302;2022-10-16T15:44:51;6.20;;;3.20;;
2099;SDS011;1055;48.854;9.302;2022-10-16T15:47:16;7.10;;;3.00;;
2099;SDS011;1055;48.854;9.302;2022-10-16T15:49:42;7.00;;;2.60;;
2099;SDS011;1055;48.854;9.302;2022-10-16T15:52:07;7.90;;;2.87;;
2099;SDS011;1055;48.854;9.302;2022-10-16T15:54:33;8.63;;;2.77;;
2099;SDS011;1055;48.854;9.302;2022-10-16T15:56:59;5.63;;;2.70;;
2099;SDS011;1055;48.854;9.302;2022-10-16T15:59:24;6.43;;;2.93;;
2099;SDS011;1055;48.854;9.302;2022-10-16T16:01:50;7.27;;;3.53;;
2099;SDS011;1055;48.854;9.302;2022-10-16T16:04:15;8.73;;;2.87;;
2099;SDS011;1055;48.854;9.302;2022-10-16T16:06:41;6.60;;;2.83;;
2099;SDS011;1055;48.854;9.302;2022-10-16T16:09:09;8.10;;;2.73;;
2099;SDS011;1055;48.854;9.302;2022-10-16T16:11:36;6.70;;;2.90;;
2099;SDS011;1055;48.854;9.302;2022-10-16T16:14:04;9.40;;;3.07;;
2099;SDS011;1055;48.854;9.302;2022-10-16T16:16:30;7.50;;;3.00;;
2099;SDS011;1055;48.854;9.302;2022-10-16T16:19:01;7.47;;;3.23;;
2099;SDS011;1055;48.854;9.302;2022-10-16T16:21:28;12.60;;;3.47;;
2099;SDS011;1055;48.854;9.302;2022-10-16T16:23:54;9.03;;;3.83;;
2099;SDS011;1055;48.854;9.302;2022-10-16T16:28:52;9.47;;;3.40;;
2099;SDS011;1055;48.854;9.302;2022-10-16T16:31:19;8.87;;;3.33;;
2099;SDS011;1055;48.854;9.302;2022-10-16T16:33:48;6.30;;;3.43;;
2099;SDS011;1055;48.854;9.302;2022-10-16T16:36:14;8.63;;;3.50;;
2099;SDS011;1055;48.854;9.302;2022-10-16T16:38:39;7.43;;;3.10;;
2099;SDS011;1055;48.854;9.302;2022-10-16T16:41:12;9.53;;;3.30;;
2099;SDS011;1055;48.854;9.302;2022-10-16T16:43:42;7.40;;;3.17;;
2099;SDS011;1055;48.854;9.302;2022-10-16T16:46:08;12.03;;;3.50;;
2099;SDS011;1055;48.854;9.302;2022-10-16T16:48:34;15.90;;;4.30;;
2099;SDS011;1055;48.854;9.302;2022-10-16T16:51:07;9.83;;;5.13;;
2099;SDS011;1055;48.854;9.302;2022-10-16T16:53:35;9.43;;;5.27;;
2099;SDS011;1055;48.854;9.302;2022-10-16T16:56:02;8.87;;;5.33;;
2099;SDS011;1055;48.854;9.302;2022-10-16T16:58:29;11.90;;;6.17;;
2099;SDS011;1055;48.854;9.302;2022-10-16T17:00:56;16.50;;;6.10;;
2099;SDS011;1055;48.854;9.302;2022-10-16T17:03:25;13.07;;;6.17;;
2099;SDS011;1055;48.854;9.302;2022-10-16T17:05:55;12.33;;;6.90;;
2099;SDS011;1055;48.854;9.302;2022-10-16T17:08:22;12.10;;;7.10;;
2099;SDS011;1055;48.854;9.302;2022-10-16T17:10:48;11.20;;;6.37;;
2099;SDS011;1055;48.854;9.302;2022-10-16T17:13:18;13.03;;;7.67;;
2099;SDS011;1055;48.854;9.302;2022-10-16T17:15:47;13.40;;;7.90;;
2099;SDS011;1055;48.854;9.302;2022-10-16T17:18:14;13.10;;;6.73;;
2099;SDS011;1055;48.854;9.302;2022-10-16T17:20:40;9.00;;;6.83;;
2099;SDS011;1055;48.854;9.302;2022-10-16T17:23:06;14.10;;;8.90;;
2099;SDS011;1055;48.854;9.302;2022-10-16T17:25:35;12.90;;;7.73;;
2099;SDS011;1055;48.854;9.302;2022-10-16T17:28:02;12.50;;;8.10;;
2099;SDS011;1055;48.854;9.302;2022-10-16T17:30:28;10.80;;;7.97;;
2099;SDS011;1055;48.854;9.302;2022-10-16T17:32:54;12.90;;;7.60;;
2099;SDS011;1055;48.854;9.302;2022-10-16T17:35:20;10.50;;;6.90;;
2099;SDS011;1055;48.854;9.302;2022-10-16T17:37:45;11.57;;;5.90;;
2099;SDS011;1055;48.854;9.302;2022-10-16T17:40:11;10.70;;;6.20;;